Latest Weather Observations for Forbes

IDN60801

Issued at 8:03 am EST Friday 29 July 2016 (issued every 30 minutes, with the page automatically refreshed every 10 minutes)

About weather observations | Map of weather stations | Latest weather observations for NSW | Other Formats
Station Details ID: 065103 Name: FORBES AIRPORT AWS Lat: -33.36 Lon: 147.92 Height: 230.4 m
Data from the previous 72 hours. | See also: Recent months at Forbes
Date/Time
EST
Temp
°C
App
Temp
°C
Dew
Point
°C
Rel
Hum
%
Delta-T
°C
Wind Press
QNH
hPa
Press
MSL
hPa
Rain since
9am
mm
Dir  Spd
km/h
Gust
km/h
Spd
kts
Gust
kts
29/08:00am 7.1 6.4 6.8 98 0.1 CALM 0 6 0 3 1026.5 1027.0 0.0
29/07:30am 7.0 4.1 6.4 96 0.3 SW 11 13 6 7 1026.5 1027.0 0.0
29/07:00am 7.0 4.8 6.1 94 0.4 SW 7 9 4 5 1026.3 1026.8 0.0
29/06:30am 7.4 5.2 6.3 93 0.5 SW 7 11 4 6 1026.1 1026.6 0.0
29/06:00am 7.5 5.5 6.1 91 0.6 SSW 6 9 3 5 1025.8 1026.2 0.0
29/05:30am 7.4 5.4 6.2 92 0.6 S 6 7 3 4 1025.5 1025.9 0.0
29/05:00am 7.8 5.1 5.8 87 0.9 S 9 13 5 7 1025.3 1025.7 0.0
29/04:30am 7.8 5.4 5.4 85 1.1 SSW 7 9 4 5 1025.3 1025.7 0.0
29/04:00am 8.0 5.3 5.6 85 1.1 SSW 9 15 5 8 1025.0 1025.4 0.0
29/03:30am 7.9 5.5 5.4 84 1.1 SSE 7 13 4 7 1025.1 1025.5 0.0
29/03:00am 8.1 4.9 5.2 82 1.3 SSW 11 19 6 10 1025.4 1025.8 0.0
29/02:30am 8.2 5.4 5.3 82 1.3 SSW 9 13 5 7 1025.6 1026.0 0.0
29/02:00am 8.2 5.5 5.5 83 1.2 SSW 9 11 5 6 1025.8 1026.2 0.0
29/01:30am 8.3 5.9 5.4 82 1.3 SSW 7 15 4 8 1025.9 1026.4 0.0
29/01:00am 8.3 6.5 5.2 81 1.4 SSW 4 13 2 7 1026.2 1026.7 0.0
29/12:30am 7.9 6.9 5.7 86 1.0 CALM 0 0 0 0 1026.3 1026.8 0.0
29/12:00am 7.9 5.6 5.9 87 0.9 SW 7 11 4 6 1026.5 1027.0 0.0
 
Date/Time
EST
Temp
°C
App
Temp
°C
Dew
Point
°C
Rel
Hum
%
Delta-T
°C
Wind Press
QNH
hPa
Press
MSL
hPa
Rain since
9am
mm
Dir  Spd
km/h
Gust
km/h
Spd
kts
Gust
kts
28/11:30pm 7.7 5.6 6.5 92 0.6 SW 7 11 4 6 1026.8 1027.3 0.0
28/11:00pm 7.5 6.4 6.9 96 0.3 SW 2 7 1 4 1027.1 1027.5 0.0
28/10:30pm 7.3 4.8 6.6 95 0.3 SW 9 11 5 6 1027.4 1027.8 0.0
28/10:00pm 8.0 5.5 6.5 90 0.7 SSW 9 13 5 7 1027.4 1027.8 0.0
28/09:30pm 8.2 4.5 6.2 87 0.9 SSW 15 19 8 10 1027.3 1027.7 0.0
28/09:00pm 8.5 4.7 6.0 84 1.1 SSW 15 20 8 11 1027.4 1027.8 0.0
28/08:30pm 8.8 4.6 5.7 81 1.4 SSW 17 24 9 13 1027.3 1027.7 0.0
28/08:00pm 8.9 5.1 5.8 81 1.4 SSW 15 19 8 10 1027.2 1027.6 0.0
28/07:30pm 9.1 5.3 5.8 80 1.5 SW 15 22 8 12 1027.1 1027.5 0.0
28/07:00pm 9.3 5.5 6.0 80 1.5 SSW 15 20 8 11 1027.1 1027.5 0.0
28/06:30pm 9.6 6.0 6.7 82 1.4 SSW 15 22 8 12 1026.8 1027.3 0.0
28/06:00pm 9.9 6.7 6.8 81 1.5 SSW 13 19 7 10 1026.5 1027.0 0.0
28/05:30pm 10.0 7.6 6.9 81 1.5 SSW 9 13 5 7 1026.4 1026.9 0.0
28/05:00pm 10.2 8.1 6.7 79 1.7 SW 7 9 4 5 1026.2 1026.7 0.0
28/04:30pm 10.5 8.1 7.0 79 1.7 SSW 9 11 5 6 1026.3 1026.8 0.0
28/04:00pm 10.6 7.6 6.2 74 2.1 SSW 11 15 6 8 1026.2 1026.7 0.0
28/03:30pm 11.0 8.1 6.7 75 2.1 SW 11 15 6 8 1026.4 1026.9 0.0
28/03:00pm 11.1 7.5 6.6 74 2.1 SSW 15 19 8 10 1026.2 1026.7 0.0
28/02:30pm 11.0 6.5 6.0 71 2.4 SW 19 24 10 13 1026.2 1026.7 0.0
28/02:00pm 11.1 7.0 6.3 72 2.3 SW 17 26 9 14 1026.4 1026.9 0.0
28/01:30pm 10.7 6.6 6.3 74 2.1 SSW 17 22 9 12 1026.7 1027.2 0.0
28/01:00pm 10.6 7.2 6.0 73 2.1 SSW 13 19 7 10 1027.1 1027.5 0.0
28/12:30pm 10.1 5.6 6.1 76 1.9 SSW 19 24 10 13 1027.3 1027.7 0.0
28/12:00pm 10.2 6.5 6.2 76 1.9 SSW 15 22 8 12 1027.6 1028.0 0.0
28/11:30am 10.3 6.3 6.8 79 1.7 S 17 20 9 11 1028.1 1028.5 0.0
28/11:00am 10.4 6.2 7.6 83 1.4 SSW 19 28 10 15 1028.4 1028.8 0.0
28/10:30am 9.2 5.9 6.6 84 1.2 SSW 13 19 7 10 1028.5 1028.9 0.0
28/10:00am 8.7 5.7 6.2 84 1.2 SSW 11 17 6 9 1028.5 1028.9 0.0
28/09:30am 8.2 5.0 6.8 91 0.7 SSW 13 17 7 9 1028.2 1028.6 0.0
28/09:00am 7.4 5.3 6.8 96 0.3 SW 7 11 4 6 1027.8 1028.2 0.2
28/08:30am 6.8 4.3 6.7 99 0.0 SSW 9 11 5 6 1027.7 1028.1 0.2
28/08:00am 5.3 3.8 5.2 99 0.0 SW 2 7 1 4 1027.5 1027.9 0.2
28/07:30am 3.5 0.7 3.4 99 0.0 WSW 7 9 4 5 1027.4 1027.8 0.2
28/07:00am 3.1 0.3 3.0 99 0.0 SW 7 9 4 5 1027.1 1027.5 0.2
28/06:30am 3.5 0.4 3.4 99 0.0 WSW 9 11 5 6 1026.5 1027.0 0.2
28/06:00am 3.7 1.0 3.6 99 0.0 SW 7 9 4 5 1026.1 1026.6 0.2
28/05:30am 4.4 3.1 4.3 99 0.0 CALM 0 0 0 0 1025.8 1026.2 0.2
28/05:00am 4.2 1.8 4.1 99 0.0 SW 6 9 3 5 1025.3 1025.7 0.2
28/04:30am 5.1 4.0 5.0 99 0.0 CALM 0 0 0 0 1025.0 1025.4 0.2
28/04:00am 4.5 3.2 4.2 98 0.1 CALM 0 0 0 0 1025.0 1025.4 0.2
28/03:30am 6.1 3.1 6.0 99 0.0 WSW 11 13 6 7 1024.9 1025.3 0.2
28/03:00am 6.3 3.3 6.2 99 0.0 WSW 11 13 6 7 1025.0 1025.4 0.2
28/02:30am 7.2 4.3 6.6 96 0.3 SW 11 15 6 8 1025.1 1025.5 0.2
28/02:00am 8.0 5.0 7.6 97 0.2 SW 13 17 7 9 1025.0 1025.4 0.2
28/01:30am 8.2 4.8 7.8 97 0.2 SW 15 20 8 11 1024.9 1025.3 0.2
28/01:00am 8.3 4.2 8.0 98 0.1 SW 19 24 10 13 1024.9 1025.3 0.2
28/12:30am 8.2 3.6 8.1 99 0.0 SW 22 32 12 17 1024.9 1025.3 0.2
28/12:00am 8.4 4.8 8.3 99 0.0 WSW 17 22 9 12 1024.6 1025.0 0.0
 
Date/Time
EST
Temp
°C
App
Temp
°C
Dew
Point
°C
Rel
Hum
%
Delta-T
°C
Wind Press
QNH
hPa
Press
MSL
hPa
Rain since
9am
mm
Dir  Spd
km/h
Gust
km/h
Spd
kts
Gust
kts
27/11:30pm 8.3 5.0 8.2 99 0.0 WSW 15 19 8 10 1024.6 1025.0 0.0
27/11:00pm 8.6 5.7 8.0 96 0.3 WSW 13 17 7 9 1024.5 1024.9 0.0
27/10:30pm 8.5 6.7 8.1 97 0.2 WNW 7 11 4 6 1024.3 1024.7 0.0
27/10:00pm 8.7 7.1 7.9 95 0.4 W 6 7 3 4 1024.2 1024.6 0.0
27/09:30pm 8.8 5.8 7.9 94 0.4 WSW 13 19 7 10 1024.3 1024.7 0.0
27/09:00pm 8.5 5.1 7.7 95 0.4 WSW 15 20 8 11 1024.1 1024.5 0.0
27/08:30pm 8.6 5.5 7.2 91 0.7 SW 13 17 7 9 1023.8 1024.2 0.0
27/08:00pm 9.1 5.3 7.4 89 0.8 WSW 17 22 9 12 1023.4 1023.8 0.0
27/07:30pm 9.6 6.1 7.4 86 1.1 SW 15 22 8 12 1023.0 1023.4 0.0
27/07:00pm 10.4 7.5 8.0 85 1.2 SW 13 19 7 10 1022.7 1023.1 0.0
27/06:30pm 10.5 7.1 7.7 83 1.4 SW 15 20 8 11 1022.0 1022.4 0.0
27/06:00pm 9.2 6.9 7.3 88 0.9 SW 9 13 5 7 1021.4 1021.8 0.0
27/05:30pm 9.9 7.3 7.7 86 1.1 W 11 13 6 7 1020.8 1021.2 0.0
27/05:00pm 10.8 8.6 8.0 83 1.4 WSW 9 11 5 6 1020.2 1020.6 0.0
27/04:30pm 12.0 8.6 7.7 75 2.1 W 15 20 8 11 1019.7 1020.1 0.0
27/04:00pm 12.2 8.0 7.5 73 2.3 W 19 24 10 13 1019.4 1019.8 0.0
27/03:30pm 12.5 9.2 8.2 75 2.1 WSW 15 19 8 10 1019.2 1019.6 0.0
27/03:00pm 12.1 8.4 8.0 76 2.0 WSW 17 24 9 13 1019.0 1019.4 0.0
27/02:30pm 12.5 7.8 7.6 72 2.4 W 22 32 12 17 1018.6 1018.9 0.0
27/02:00pm 11.1 5.7 8.1 82 1.5 W 26 37 14 20 1018.6 1018.9 0.0
27/01:30pm 11.9 6.3 8.6 80 1.7 WSW 28 35 15 19 1018.4 1018.7 0.0
27/01:00pm 11.2 5.7 7.7 79 1.7 W 26 33 14 18 1018.2 1018.5 0.0
27/12:30pm 11.7 6.2 7.6 76 2.0 WSW 26 35 14 19 1018.3 1018.6 0.0
27/12:00pm 11.3 5.3 7.2 76 2.0 WSW 28 41 15 22 1018.4 1018.7 0.0
27/11:30am 11.1 5.6 7.4 78 1.8 WSW 26 35 14 19 1018.2 1018.5 0.0
27/11:00am 10.9 4.6 7.2 78 1.8 W 30 37 16 20 1018.0 1018.3 0.0
27/10:30am 10.9 4.9 7.2 78 1.8 W 28 37 15 20 1017.9 1018.2 0.0
27/10:00am 11.1 5.3 8.0 81 1.5 W 28 43 15 23 1017.5 1017.9 0.0
27/09:30am 10.8 5.2 7.3 79 1.7 W 26 39 14 21 1017.0 1017.4 0.0
27/09:00am 10.6 5.0 7.1 79 1.7 W 26 33 14 18 1017.0 1017.4 0.2
27/08:30am 10.0 5.2 7.3 83 1.3 W 22 32 12 17 1016.6 1017.0 0.2
27/08:00am 9.9 5.5 7.2 83 1.3 W 20 30 11 16 1016.2 1016.6 0.2
27/07:30am 9.5 5.3 7.4 87 1.0 WNW 19 24 10 13 1015.6 1016.0 0.2
27/07:00am 9.7 5.5 7.6 87 1.0 WNW 19 24 10 13 1015.1 1015.5 0.2
27/06:30am 9.6 5.2 7.5 87 1.0 NW 20 28 11 15 1014.5 1014.8 0.2
27/06:00am 10.2 5.1 7.6 84 1.3 WNW 24 32 13 17 1013.9 1014.2 0.2
27/05:30am 10.3 4.4 7.7 84 1.3 NW 28 39 15 21 1013.7 1014.0 0.2
27/05:00am 10.4 5.3 7.8 84 1.3 NW 24 32 13 17 1013.4 1013.7 0.2
27/04:30am 10.4 5.4 8.0 85 1.2 NNW 24 32 13 17 1013.0 1013.4 0.2
27/04:00am 9.3 6.0 7.9 91 0.7 NNW 15 19 8 10 1013.4 1013.7 0.2
27/03:30am 10.4 6.1 7.8 84 1.3 NNW 20 30 11 16 1013.5 1013.8 0.2
27/03:00am 10.2 5.5 7.6 84 1.3 NNW 22 28 12 15 1013.8 1014.1 0.2
27/02:30am 10.3 5.9 7.5 83 1.4 NNW 20 24 11 13 1014.0 1014.3 0.2
27/02:00am 9.7 6.3 7.8 88 0.9 NNW 15 19 8 10 1014.3 1014.6 0.2
27/01:30am 9.6 5.4 7.4 86 1.1 WNW 19 28 10 15 1014.5 1014.8 0.2
27/01:00am 9.0 5.6 7.6 91 0.7 NW 15 28 8 15 1015.1 1015.5 0.2
27/12:30am 9.4 5.3 7.8 90 0.8 NNW 19 24 10 13 1014.6 1014.9 0.2
27/12:00am 9.3 4.2 7.7 90 0.8 NW 24 33 13 18 1015.0 1015.3 0.2
 
Date/Time
EST
Temp
°C
App
Temp
°C
Dew
Point
°C
Rel
Hum
%
Delta-T
°C
Wind Press
QNH
hPa
Press
MSL
hPa
Rain since
9am
mm
Dir  Spd
km/h
Gust
km/h
Spd
kts
Gust
kts
26/11:47pm 10.1 5.2 8.5 90 0.8 NNW 24 39 13 21 1014.9 1015.2 0.2
26/11:30pm 9.5 6.4 8.9 96 0.3 N 15 17 8 9 1015.0 1015.3 0.0
26/11:00pm 9.8 6.7 8.9 94 0.4 N 15 17 8 9 1015.4 1015.8 0.0
26/10:30pm 9.6 6.8 8.7 94 0.4 N 13 17 7 9 1015.6 1016.0 0.0
26/10:00pm 9.1 7.4 8.2 94 0.4 N 7 11 4 6 1016.0 1016.4 0.0
26/09:30pm 9.4 8.4 8.8 96 0.3 W 4 7 2 4 1016.0 1016.4 0.0
26/09:00pm 9.2 6.8 8.7 97 0.2 N 11 13 6 7 1016.0 1016.4 0.0
26/08:30pm 9.3 8.3 8.7 96 0.3 N 4 7 2 4 1016.2 1016.6 0.0
26/08:00pm 9.4 6.7 8.8 96 0.3 NNE 13 15 7 8 1016.1 1016.5 0.0
26/07:30pm 9.7 8.2 9.1 96 0.3 N 7 9 4 5 1016.0 1016.4 0.0
26/07:00pm 9.8 8.4 8.7 93 0.5 N 6 7 3 4 1016.1 1016.5 0.0
26/06:30pm 10.0 8.6 8.8 92 0.6 N 6 9 3 5 1015.9 1016.3 0.0
26/06:00pm 10.4 8.9 8.3 87 1.0 NNW 6 7 3 4 1015.7 1016.1 0.0
26/05:30pm 10.9 9.2 8.3 84 1.3 NW 7 9 4 5 1015.6 1016.0 0.0
26/05:00pm 11.2 9.5 7.5 78 1.8 WNW 6 9 3 5 1015.5 1015.9 0.0
26/04:30pm 11.5 9.3 7.8 78 1.8 W 9 11 5 6 1015.6 1016.0 0.0
26/04:00pm 11.7 8.5 6.8 72 2.4 W 13 17 7 9 1015.8 1016.2 0.0
26/03:30pm 11.8 8.6 6.7 71 2.5 W 13 15 7 8 1016.0 1016.4 0.0
26/03:00pm 12.1 7.9 5.9 66 2.9 W 17 26 9 14 1016.1 1016.5 0.0
26/02:30pm 12.5 7.9 6.3 66 3.0 WNW 20 28 11 15 1016.4 1016.8 0.0
26/02:00pm 12.5 7.8 6.1 65 3.1 WNW 20 28 11 15 1016.6 1017.0 0.0
26/01:30pm 12.5 8.3 7.6 72 2.4 WNW 19 26 10 14 1016.8 1017.2 0.0
26/01:00pm 12.8 8.5 7.0 68 2.8 WNW 19 26 10 14 1017.1 1017.5 0.0
26/12:30pm 11.9 7.2 6.0 67 2.8 WNW 20 26 11 14 1017.6 1018.0 0.0
26/12:00pm 11.9 8.2 6.2 68 2.7 W 15 24 8 13 1018.2 1018.5 0.0
26/11:30am 11.2 7.6 6.7 74 2.2 W 15 20 8 11 1018.5 1018.8 0.0
26/11:00am 11.5 7.5 6.6 72 2.3 NW 17 20 9 11 1018.8 1019.2 0.0
26/10:30am 10.4 6.7 6.4 76 1.9 WNW 15 20 8 11 1019.1 1019.5 0.0
26/10:00am 10.4 7.3 7.1 80 1.6 W 13 17 7 9 1019.4 1019.8 0.0
26/09:30am 10.0 7.3 7.3 83 1.3 WNW 11 17 6 9 1019.4 1019.8 0.0
26/09:00am 9.5 7.1 6.9 84 1.2 NW 9 15 5 8 1019.4 1019.8 0.0
26/08:30am 8.6 6.6 6.9 89 0.8 N 7 9 4 5 1019.3 1019.7 0.0

Other Formats:

Comma delimited format used in spreadsheet applications
http://www.bom.gov.au/fwo/IDN60801/IDN60801.94715.axf

JavaScript Object Notation format (JSON) in row-major order
http://www.bom.gov.au/fwo/IDN60801/IDN60801.94715.json